createdAt,value
2023-02-19T00:01:52.192Z,9.33
2023-02-19T00:04:38.220Z,9.26
2023-02-19T00:07:24.151Z,9.17
2023-02-19T00:10:09.917Z,9.10
2023-02-19T00:12:55.779Z,9.07
2023-02-19T00:15:41.589Z,9.00
2023-02-19T00:18:27.417Z,8.90
2023-02-19T00:21:14.249Z,8.88
2023-02-19T00:24:02.528Z,8.78
2023-02-19T00:26:49.139Z,8.79
2023-02-19T00:29:35.311Z,8.60
2023-02-19T00:32:21.208Z,8.59
2023-02-19T00:35:06.921Z,8.51
2023-02-19T00:37:52.842Z,8.36
2023-02-19T00:40:39.048Z,8.15
2023-02-19T00:43:24.909Z,8.31
2023-02-19T00:46:12.605Z,8.30
2023-02-19T00:48:59.035Z,8.07
2023-02-19T00:51:45.482Z,8.20
2023-02-19T00:54:31.638Z,8.12
2023-02-19T00:57:18.004Z,8.11
2023-02-19T01:00:06.622Z,8.03
2023-02-19T01:02:52.718Z,7.93
2023-02-19T01:05:38.662Z,7.99
2023-02-19T01:08:25.262Z,7.85
2023-02-19T01:11:12.195Z,7.78
2023-02-19T01:13:59.816Z,7.79
2023-02-19T01:16:45.701Z,7.67
2023-02-19T01:19:31.591Z,7.60
2023-02-19T01:22:17.233Z,7.58
2023-02-19T01:25:03.219Z,7.54
2023-02-19T01:27:49.159Z,7.49
2023-02-19T01:30:37.381Z,7.49
2023-02-19T01:33:23.278Z,6.87
2023-02-19T01:36:09.632Z,7.23
2023-02-19T01:38:56.097Z,7.21
2023-02-19T01:41:42.069Z,7.21
2023-02-19T01:44:28.286Z,7.27
2023-02-19T01:47:15.437Z,7.21
2023-02-19T01:50:01.445Z,7.22
2023-02-19T01:52:47.727Z,7.22
2023-02-19T01:55:34.259Z,7.20
2023-02-19T01:58:20.537Z,7.21
2023-02-19T02:01:08.389Z,7.19
2023-02-19T02:03:54.566Z,7.15
2023-02-19T02:06:48.999Z,7.12
2023-02-19T02:09:53.740Z,7.04
2023-02-19T02:12:39.584Z,7.10
2023-02-19T02:15:30.143Z,7.06
2023-02-19T02:18:58.639Z,6.98
2023-02-19T02:21:57.373Z,7.00
2023-02-19T02:24:46.611Z,6.99
2023-02-19T02:27:54.309Z,6.93
2023-02-19T02:30:42.323Z,6.98
2023-02-19T02:34:03.165Z,6.87
2023-02-19T02:36:53.094Z,6.89
2023-02-19T02:39:39.939Z,6.77
2023-02-19T02:42:28.913Z,6.85
2023-02-19T02:45:38.055Z,6.85
2023-02-19T02:48:44.302Z,6.84
2023-02-19T02:51:33.826Z,6.84
2023-02-19T02:54:49.097Z,6.79
2023-02-19T02:57:36.806Z,6.75
2023-02-19T03:00:24.443Z,6.78
2023-02-19T03:03:10.330Z,6.79
2023-02-19T03:06:00.060Z,6.76
2023-02-19T03:08:54.402Z,6.66
2023-02-19T03:12:01.617Z,6.72
2023-02-19T03:15:08.116Z,6.71
2023-02-19T03:18:17.035Z,6.67
2023-02-19T03:21:04.570Z,6.67
2023-02-19T03:24:09.444Z,6.64
2023-02-19T03:26:57.272Z,6.59
2023-02-19T03:29:45.240Z,6.56
2023-02-19T03:32:45.279Z,6.53
2023-02-19T03:35:33.558Z,6.51
2023-02-19T03:38:32.345Z,6.46
2023-02-19T03:41:46.541Z,6.41
2023-02-19T03:45:04.415Z,6.40
2023-02-19T03:48:13.953Z,6.34
2023-02-19T03:51:14.816Z,6.38
2023-02-19T03:54:03.581Z,6.37
2023-02-19T03:57:24.130Z,6.31
2023-02-19T04:00:28.380Z,6.26
2023-02-19T04:03:29.020Z,6.31
2023-02-19T04:06:18.352Z,6.33
2023-02-19T04:09:06.925Z,6.33
2023-02-19T04:11:54.090Z,6.26
2023-02-19T04:14:44.688Z,6.24
2023-02-19T04:17:35.983Z,6.08
2023-02-19T04:20:23.511Z,6.23
2023-02-19T04:23:09.687Z,6.20
2023-02-19T04:25:58.972Z,6.23
2023-02-19T04:28:44.660Z,6.19
2023-02-19T04:31:35.337Z,6.18
2023-02-19T04:34:21.572Z,6.11
2023-02-19T04:37:07.686Z,6.20
2023-02-19T04:39:53.383Z,6.19
2023-02-19T04:42:39.291Z,6.10
2023-02-19T04:45:24.899Z,6.07
2023-02-19T04:48:11.059Z,6.16
2023-02-19T04:50:57.307Z,6.13
2023-02-19T04:53:43.112Z,6.19
2023-02-19T04:56:29.208Z,6.12
2023-02-19T04:59:15.137Z,6.08
2023-02-19T05:02:01.029Z,6.13
2023-02-19T05:04:46.838Z,6.16
2023-02-19T05:07:34.313Z,6.13
2023-02-19T05:10:20.327Z,6.08
2023-02-19T05:13:06.124Z,6.06
2023-02-19T05:15:59.133Z,6.08
2023-02-19T05:18:46.104Z,5.98
2023-02-19T05:21:32.094Z,6.03
2023-02-19T05:24:18.057Z,6.00
2023-02-19T05:27:04.026Z,5.99
2023-02-19T05:29:49.970Z,5.97
2023-02-19T05:32:36.048Z,5.94
2023-02-19T05:35:21.822Z,5.85
2023-02-19T05:38:08.240Z,5.85
2023-02-19T05:40:54.032Z,5.78
2023-02-19T05:43:41.406Z,5.82
2023-02-19T05:46:29.922Z,5.77
2023-02-19T05:49:16.122Z,5.76
2023-02-19T05:52:01.977Z,5.68
2023-02-19T05:54:47.940Z,5.75
2023-02-19T05:57:33.838Z,5.74
2023-02-19T06:00:20.493Z,5.69
2023-02-19T06:03:06.504Z,5.72
2023-02-19T06:05:52.389Z,5.71
2023-02-19T06:08:38.341Z,5.72
2023-02-19T06:11:25.228Z,5.71
2023-02-19T06:14:13.858Z,5.65
2023-02-19T06:16:59.570Z,5.71
2023-02-19T06:19:45.397Z,5.74
2023-02-19T06:22:31.346Z,5.79
2023-02-19T06:25:18.447Z,5.77
2023-02-19T06:28:04.878Z,5.83
2023-02-19T06:30:51.583Z,5.84
2023-02-19T06:33:40.522Z,5.89
2023-02-19T06:36:26.678Z,5.92
2023-02-19T06:39:12.505Z,5.90
2023-02-19T06:41:58.404Z,5.97
2023-02-19T06:44:45.460Z,6.11
2023-02-19T06:47:32.665Z,6.13
2023-02-19T06:50:18.738Z,6.17
2023-02-19T06:53:04.834Z,6.18
2023-02-19T06:56:08.310Z,6.20
2023-02-19T06:58:55.940Z,6.29
2023-02-19T07:01:41.721Z,6.38
2023-02-19T07:04:27.663Z,6.38
2023-02-19T07:07:13.962Z,6.46
2023-02-19T07:09:59.864Z,6.41
2023-02-19T07:12:48.646Z,6.54
2023-02-19T07:15:34.720Z,6.63
2023-02-19T07:18:20.592Z,6.69
2023-02-19T07:21:11.741Z,6.74
2023-02-19T07:23:58.546Z,6.73
2023-02-19T07:26:44.149Z,6.86
2023-02-19T07:29:29.939Z,6.96
2023-02-19T07:32:15.662Z,7.05
2023-02-19T07:35:01.517Z,7.12
2023-02-19T07:37:47.329Z,7.20
2023-02-19T07:40:33.237Z,7.17
2023-02-19T07:43:19.488Z,7.28
2023-02-19T07:46:14.761Z,7.31
2023-02-19T07:49:01.133Z,7.56
2023-02-19T07:51:47.042Z,7.64
2023-02-19T07:54:33.045Z,7.76
2023-02-19T07:57:18.835Z,7.84
2023-02-19T08:00:05.104Z,7.99
2023-02-19T08:03:01.262Z,8.09
2023-02-19T08:05:51.091Z,8.19
2023-02-19T08:08:43.520Z,8.31
2023-02-19T08:11:48.083Z,8.46
2023-02-19T08:14:34.090Z,8.59
2023-02-19T08:17:20.124Z,8.76
2023-02-19T08:20:06.232Z,8.93
2023-02-19T08:22:52.331Z,9.06
2023-02-19T08:25:38.974Z,9.22
2023-02-19T08:28:25.369Z,9.42
2023-02-19T08:31:12.719Z,9.60
2023-02-19T08:33:58.815Z,9.77
2023-02-19T08:36:44.670Z,9.81
2023-02-19T08:39:30.502Z,9.96
2023-02-19T08:42:16.297Z,10.28
2023-02-19T08:45:06.023Z,10.41
2023-02-19T08:47:53.746Z,10.60
2023-02-19T08:50:43.702Z,10.69
2023-02-19T08:53:32.204Z,10.73
2023-02-19T08:56:18.342Z,10.85
2023-02-19T08:59:04.174Z,11.00
2023-02-19T09:01:50.207Z,11.11
2023-02-19T09:04:37.832Z,11.25
2023-02-19T09:07:23.773Z,11.39
2023-02-19T09:10:13.850Z,11.56
2023-02-19T09:12:59.734Z,11.72
2023-02-19T09:15:45.689Z,11.86
2023-02-19T09:18:32.054Z,11.65
2023-02-19T09:21:18.060Z,12.03
2023-02-19T09:24:04.130Z,12.18
2023-02-19T09:26:51.556Z,12.42
2023-02-19T09:29:37.764Z,12.42
2023-02-19T09:32:23.592Z,12.51
2023-02-19T09:35:09.312Z,12.70
2023-02-19T09:37:55.240Z,12.71
2023-02-19T09:40:41.109Z,12.94
2023-02-19T09:43:28.237Z,12.96
2023-02-19T09:46:40.559Z,13.01
2023-02-19T09:49:34.181Z,13.16
2023-02-19T09:52:37.113Z,13.21
2023-02-19T09:55:32.802Z,13.33
2023-02-19T09:58:32.497Z,13.46
2023-02-19T10:01:18.853Z,13.58
2023-02-19T10:04:04.758Z,13.74
2023-02-19T10:06:51.747Z,13.80
2023-02-19T10:09:38.469Z,13.76
2023-02-19T10:12:30.109Z,13.90
2023-02-19T10:15:31.105Z,13.94
2023-02-19T10:18:23.255Z,14.07
2023-02-19T10:21:22.238Z,14.03
2023-02-19T10:24:08.709Z,14.21
2023-02-19T10:26:54.634Z,14.26
2023-02-19T10:29:40.788Z,14.34
2023-02-19T10:32:29.582Z,14.33
2023-02-19T10:35:16.538Z,14.54
2023-02-19T10:38:03.916Z,14.51
2023-02-19T10:40:58.465Z,14.55
2023-02-19T10:44:03.418Z,14.53
2023-02-19T10:46:51.524Z,14.55
2023-02-19T10:49:44.008Z,14.68
2023-02-19T10:52:34.370Z,14.64
2023-02-19T10:55:20.903Z,14.75
2023-02-19T10:58:26.096Z,14.57
2023-02-19T11:01:23.110Z,14.51
2023-02-19T11:04:17.922Z,14.53
2023-02-19T11:07:13.278Z,14.57
2023-02-19T11:09:59.530Z,14.77
2023-02-19T11:12:48.412Z,14.76
2023-02-19T11:15:36.108Z,14.82
2023-02-19T11:18:27.671Z,14.88
2023-02-19T11:21:28.734Z,14.83
2023-02-19T11:24:24.919Z,14.95
2023-02-19T11:27:19.245Z,14.98
2023-02-19T11:30:27.003Z,15.07
2023-02-19T11:33:16.020Z,15.15
2023-02-19T11:36:20.491Z,15.11
2023-02-19T11:39:15.826Z,15.33
2023-02-19T11:42:16.148Z,15.29
2023-02-19T11:45:26.206Z,15.26
2023-02-19T11:48:41.654Z,15.17
2023-02-19T11:51:52.453Z,15.35
2023-02-19T11:54:49.279Z,15.35
2023-02-19T11:57:40.879Z,15.44
2023-02-19T12:00:31.464Z,15.40
2023-02-19T12:03:39.233Z,15.35
2023-02-19T12:06:39.384Z,15.44
2023-02-19T12:09:31.412Z,15.55
2023-02-19T12:12:35.051Z,15.54
2023-02-19T12:15:31.984Z,15.60
2023-02-19T12:18:24.789Z,15.60
2023-02-19T12:21:26.675Z,15.68
2023-02-19T12:24:38.087Z,15.79
2023-02-19T12:27:49.635Z,15.77
2023-02-19T12:30:54.499Z,15.96
2023-02-19T12:34:01.878Z,15.95
2023-02-19T12:37:25.276Z,15.95
2023-02-19T12:40:11.280Z,15.88
2023-02-19T12:43:15.483Z,16.09
2023-02-19T12:46:21.689Z,16.30
2023-02-19T12:49:40.026Z,16.22
2023-02-19T12:52:28.683Z,16.26
2023-02-19T12:55:37.790Z,16.21
2023-02-19T12:58:32.490Z,16.37
2023-02-19T13:01:23.738Z,16.44
2023-02-19T13:04:31.252Z,16.53
2023-02-19T13:07:21.845Z,16.60
2023-02-19T13:10:10.844Z,16.67
2023-02-19T13:13:00.561Z,16.73
2023-02-19T13:15:53.278Z,16.88
2023-02-19T13:18:49.039Z,16.83
2023-02-19T13:21:55.957Z,16.90
2023-02-19T13:24:42.619Z,17.01
2023-02-19T13:27:43.054Z,17.07
2023-02-19T13:30:36.278Z,17.20
2023-02-19T13:33:46.582Z,17.29
2023-02-19T13:36:35.024Z,17.36
2023-02-19T13:39:21.948Z,17.61
2023-02-19T13:42:24.644Z,17.64
2023-02-19T13:45:22.208Z,17.72
2023-02-19T13:48:14.456Z,17.66
2023-02-19T13:51:29.527Z,17.71
2023-02-19T13:54:22.889Z,17.72
2023-02-19T13:57:23.971Z,17.89
2023-02-19T14:00:49.467Z,18.24
2023-02-19T14:04:08.213Z,18.53
2023-02-19T14:07:03.363Z,19.22
2023-02-19T14:09:49.791Z,19.69
2023-02-19T14:12:37.054Z,20.01
2023-02-19T14:15:44.288Z,19.96
2023-02-19T14:18:46.615Z,19.81
2023-02-19T14:21:38.516Z,19.67
2023-02-19T14:24:25.792Z,19.51
2023-02-19T14:27:12.213Z,19.37
2023-02-19T14:29:58.546Z,19.30
2023-02-19T14:32:47.471Z,19.16
2023-02-19T14:35:47.833Z,19.04
2023-02-19T14:38:39.752Z,18.89
2023-02-19T14:41:26.240Z,18.75
2023-02-19T14:44:18.660Z,18.63
2023-02-19T14:47:11.902Z,18.48
2023-02-19T14:50:02.785Z,18.41
2023-02-19T14:52:50.241Z,18.22
2023-02-19T14:55:37.953Z,18.08
2023-02-19T14:58:28.608Z,17.94
2023-02-19T15:01:28.053Z,17.79
2023-02-19T15:04:34.661Z,17.71
2023-02-19T15:07:23.899Z,17.65
2023-02-19T15:10:12.633Z,17.56
2023-02-19T15:13:01.667Z,17.39
2023-02-19T15:15:47.914Z,17.36
2023-02-19T15:18:36.619Z,17.17
2023-02-19T15:21:28.152Z,17.09
2023-02-19T15:24:16.147Z,17.07
2023-02-19T15:27:02.095Z,16.94
2023-02-19T15:29:51.726Z,16.89
2023-02-19T15:32:39.158Z,16.79
2023-02-19T15:35:27.142Z,16.73
2023-02-19T15:38:12.935Z,16.55
2023-02-19T15:40:59.545Z,16.47
2023-02-19T15:43:58.694Z,16.30
2023-02-19T15:46:45.590Z,16.26
2023-02-19T15:49:45.105Z,16.10
2023-02-19T15:52:38.879Z,16.00
2023-02-19T15:55:33.719Z,15.99
2023-02-19T15:58:28.837Z,15.93
2023-02-19T16:01:25.209Z,15.70
2023-02-19T16:04:14.030Z,15.75
2023-02-19T16:07:02.338Z,15.64
2023-02-19T16:09:47.981Z,15.56
2023-02-19T16:12:34.031Z,15.50
2023-02-19T16:15:20.861Z,15.38
2023-02-19T16:18:06.895Z,15.37
2023-02-19T16:20:52.817Z,15.32
2023-02-19T16:23:43.011Z,15.25
2023-02-19T16:26:29.514Z,15.17
2023-02-19T16:29:20.561Z,15.09
2023-02-19T16:32:14.119Z,15.04
2023-02-19T16:35:03.336Z,14.94
2023-02-19T16:37:59.645Z,14.88
2023-02-19T16:40:53.271Z,14.85
2023-02-19T16:43:43.623Z,14.75
2023-02-19T16:46:32.544Z,14.75
2023-02-19T16:49:18.930Z,14.69
2023-02-19T16:52:05.301Z,14.61
2023-02-19T16:54:51.512Z,14.52
2023-02-19T16:57:37.360Z,14.44
2023-02-19T17:00:31.222Z,14.46
2023-02-19T17:03:22.134Z,14.41
2023-02-19T17:06:08.269Z,14.32
2023-02-19T17:08:54.139Z,14.18
2023-02-19T17:11:40.307Z,14.20
2023-02-19T17:14:26.528Z,14.24
2023-02-19T17:17:12.697Z,14.03
2023-02-19T17:19:58.748Z,14.09
2023-02-19T17:22:44.935Z,14.06
2023-02-19T17:25:31.808Z,14.01
2023-02-19T17:28:17.848Z,13.99
2023-02-19T17:31:04.190Z,13.99
2023-02-19T17:33:50.675Z,13.95
2023-02-19T17:36:38.113Z,13.84
2023-02-19T17:39:24.214Z,13.99
2023-02-19T17:42:10.418Z,13.94
2023-02-19T17:44:56.255Z,13.96
2023-02-19T17:47:42.291Z,13.86
2023-02-19T17:50:32.376Z,13.84
2023-02-19T17:53:18.892Z,13.79
2023-02-19T17:56:05.174Z,13.77
2023-02-19T17:58:51.902Z,13.76
2023-02-19T18:01:38.288Z,13.64
2023-02-19T18:04:24.236Z,13.65
2023-02-19T18:07:09.959Z,13.58
2023-02-19T18:09:56.240Z,13.54
2023-02-19T18:12:42.710Z,13.49
2023-02-19T18:15:29.001Z,13.48
2023-02-19T18:18:15.182Z,13.50
2023-02-19T18:21:01.219Z,13.37
2023-02-19T18:23:47.103Z,13.35
2023-02-19T18:26:33.743Z,13.34
2023-02-19T18:29:20.214Z,13.27
2023-02-19T18:32:06.179Z,13.24
2023-02-19T18:34:54.418Z,13.16
2023-02-19T18:37:40.242Z,13.14
2023-02-19T18:40:26.056Z,13.15
2023-02-19T18:43:13.145Z,13.10
2023-02-19T18:45:59.487Z,13.03
2023-02-19T18:48:45.677Z,12.97
2023-02-19T18:51:31.934Z,12.91
2023-02-19T18:54:17.761Z,12.88
2023-02-19T18:57:04.599Z,12.85
2023-02-19T18:59:50.810Z,12.77
2023-02-19T19:02:48.614Z,12.71
2023-02-19T19:05:35.176Z,12.63
2023-02-19T19:08:20.873Z,12.56
2023-02-19T19:11:06.718Z,12.54
2023-02-19T19:13:52.992Z,12.46
2023-02-19T19:16:39.123Z,12.41
2023-02-19T19:19:25.027Z,12.38
2023-02-19T19:22:10.950Z,12.10
2023-02-19T19:24:56.814Z,12.24
2023-02-19T19:27:42.803Z,12.28
2023-02-19T19:30:28.624Z,12.27
2023-02-19T19:33:14.407Z,12.20
2023-02-19T19:36:00.124Z,12.17
2023-02-19T19:38:46.600Z,12.14
2023-02-19T19:41:32.609Z,12.14
2023-02-19T19:44:18.405Z,12.07
2023-02-19T19:47:04.423Z,12.05
2023-02-19T19:49:50.649Z,12.02
2023-02-19T19:52:36.384Z,11.99
2023-02-19T19:55:22.382Z,11.94
2023-02-19T19:58:08.386Z,11.86
2023-02-19T20:00:54.869Z,11.77
2023-02-19T20:03:41.358Z,11.73
2023-02-19T20:06:29.865Z,11.74
2023-02-19T20:09:17.722Z,11.73
2023-02-19T20:12:04.492Z,11.59
2023-02-19T20:14:50.462Z,11.62
2023-02-19T20:17:36.433Z,11.61
2023-02-19T20:20:22.749Z,11.57
2023-02-19T20:23:09.624Z,11.42
2023-02-19T20:25:58.473Z,11.46
2023-02-19T20:28:46.531Z,11.37
2023-02-19T20:31:34.672Z,11.41
2023-02-19T20:34:22.760Z,11.37
2023-02-19T20:37:08.967Z,11.32
2023-02-19T20:39:54.870Z,11.33
2023-02-19T20:42:40.879Z,11.25
2023-02-19T20:45:28.303Z,11.15
2023-02-19T20:48:17.649Z,11.18
2023-02-19T20:51:04.027Z,11.19
2023-02-19T20:53:49.760Z,11.15
2023-02-19T20:56:35.670Z,11.12
2023-02-19T20:59:23.608Z,11.11
2023-02-19T21:02:16.594Z,11.06
2023-02-19T21:05:03.227Z,11.07
2023-02-19T21:07:49.412Z,10.94
2023-02-19T21:10:35.720Z,11.02
2023-02-19T21:13:21.535Z,10.98
2023-02-19T21:16:07.635Z,10.85
2023-02-19T21:18:53.794Z,10.91
2023-02-19T21:21:40.486Z,10.88
2023-02-19T21:24:26.568Z,10.83
2023-02-19T21:27:12.558Z,10.84
2023-02-19T21:29:58.554Z,10.79
2023-02-19T21:32:44.510Z,10.67
2023-02-19T21:35:30.791Z,10.73
2023-02-19T21:38:16.795Z,10.71
2023-02-19T21:41:02.896Z,10.63
2023-02-19T21:43:48.659Z,10.63
2023-02-19T21:46:34.692Z,10.58
2023-02-19T21:49:21.561Z,10.52
2023-02-19T21:52:07.581Z,10.42
2023-02-19T21:54:53.727Z,10.50
2023-02-19T21:57:39.856Z,10.45
2023-02-19T22:00:25.880Z,10.41
2023-02-19T22:03:16.188Z,10.41
2023-02-19T22:06:02.413Z,10.35
2023-02-19T22:08:48.498Z,10.35
2023-02-19T22:11:34.521Z,10.31
2023-02-19T22:14:20.630Z,10.26
2023-02-19T22:17:06.413Z,10.16
2023-02-19T22:19:52.495Z,10.19
2023-02-19T22:22:38.173Z,10.14
2023-02-19T22:25:24.252Z,10.14
2023-02-19T22:28:10.585Z,10.04
2023-02-19T22:30:56.547Z,9.94
2023-02-19T22:33:42.495Z,9.98
2023-02-19T22:36:33.364Z,9.98
2023-02-19T22:39:25.116Z,9.78
2023-02-19T22:42:10.812Z,9.87
2023-02-19T22:44:56.808Z,9.86
2023-02-19T22:47:43.927Z,9.77
2023-02-19T22:50:30.684Z,9.81
2023-02-19T22:53:16.741Z,9.81
2023-02-19T22:56:02.823Z,9.77
2023-02-19T22:58:49.163Z,9.74
2023-02-19T23:01:35.678Z,9.70
2023-02-19T23:04:22.858Z,9.70
2023-02-19T23:07:08.823Z,9.66
2023-02-19T23:09:54.640Z,9.68
2023-02-19T23:12:41.266Z,9.64
2023-02-19T23:15:26.910Z,9.65
2023-02-19T23:18:12.705Z,9.61
2023-02-19T23:20:58.468Z,9.60
2023-02-19T23:23:45.762Z,9.61
2023-02-19T23:26:31.929Z,9.50
2023-02-19T23:29:25.078Z,9.49
2023-02-19T23:32:11.276Z,9.54
2023-02-19T23:34:56.947Z,9.46
2023-02-19T23:37:43.077Z,9.48
2023-02-19T23:40:29.198Z,9.42
2023-02-19T23:43:15.138Z,9.36
2023-02-19T23:46:01.909Z,9.40
2023-02-19T23:48:47.843Z,9.30
2023-02-19T23:51:33.892Z,9.39
2023-02-19T23:54:19.728Z,9.37
2023-02-19T23:57:05.704Z,9.36
2023-02-19T23:59:51.891Z,9.41
